Time;durP1;ratioP1;P1;durP2;ratioP2;P2;SDS_P1;SDS_P2;PMS_P1;PMS_P2;Temp;Humidity;BMP_temperature;BMP_pressure;BME280_temperature;BME280_humidity;BME280_pressure;Samples;Min_cycle;Max_cycle;Signal;HPM_P1;HPM_P2
2022/06/27 00:00:30;;;;;;;;;;;;;;;18.63;nan;99289.91;4910587;29;20506;-76
2022/06/27 00:02:55;;;;;;;;;;;;;;;18.68;nan;99300.94;4894598;29;19969;-76
2022/06/27 00:05:21;;;;;;;;;;;;;;;18.75;nan;99311.81;4908688;29;19977;-76
2022/06/27 00:07:46;;;;;;;;;;;;;;;18.72;nan;99298.81;4909186;29;20052;-76
2022/06/27 00:10:12;;;;;;;;;;;;;;;18.63;nan;99289.91;4893038;29;19985;-75
2022/06/27 00:12:38;;;;;;;;;;;;;;;18.57;nan;99311.84;4912155;29;20005;-76
2022/06/27 00:15:04;;;;;;;;;;;;;;;18.57;nan;99325.97;4913274;29;19973;-76
2022/06/27 00:17:29;;;;;;;;;;;;;;;18.60;nan;99303.53;4915877;29;20538;-76
2022/06/27 00:19:55;;;;;;;;;;;;;;;18.64;nan;99314.72;4908809;29;19990;-76
2022/06/27 00:22:20;;;;;;;;;;;;;;;18.68;nan;99319.56;4912311;29;20040;-76
2022/06/27 00:24:46;;;;;;;;;;;;;;;18.72;nan;99342.22;4908339;29;20413;-75
2022/06/27 00:27:11;;;;;;;;;;;;;;;18.76;nan;99346.25;4908512;29;20523;-75
2022/06/27 00:29:37;;;;;;;;;;;;;;;18.77;nan;99339.13;4899541;29;19986;-75
2022/06/27 00:32:02;;;;;;;;;;;;;;;18.74;nan;99331.38;4909498;29;19973;-75
2022/06/27 00:34:28;;;;;;;;;;;;;;;18.70;nan;99325.56;4890799;29;20447;-75
2022/06/27 00:36:54;;;;;;;;;;;;;;;18.67;nan;99331.19;4908924;29;20012;-75
2022/06/27 00:39:20;;;;;;;;;;;;;;;18.68;nan;99332.03;4893594;29;19990;-75
2022/06/27 00:41:45;;;;;;;;;;;;;;;18.68;nan;99322.22;4907726;29;20076;-75
2022/06/27 00:44:11;;;;;;;;;;;;;;;18.72;nan;99336.06;4911727;29;19969;-75
2022/06/27 00:46:36;;;;;;;;;;;;;;;18.75;nan;99339.25;4900745;29;20460;-75
2022/06/27 00:49:01;;;;;;;;;;;;;;;18.73;nan;99346.53;4889118;29;20187;-75
2022/06/27 00:51:27;;;;;;;;;;;;;;;18.70;nan;99352.16;4906019;29;20112;-75
2022/06/27 00:53:53;;;;;;;;;;;;;;;18.67;nan;99352.47;4898497;29;19988;-75
2022/06/27 00:56:18;;;;;;;;;;;;;;;18.68;nan;99361.28;4911817;29;20024;-75
2022/06/27 00:58:43;;;;;;;;;;;;;;;18.72;nan;99355.50;4902541;29;20019;-75
2022/06/27 01:01:09;;;;;;;;;;;;;;;18.77;nan;99342.59;4907894;29;20056;-75
2022/06/27 01:03:34;;;;;;;;;;;;;;;18.74;nan;99337.59;4915060;29;20008;-75
2022/06/27 01:06:00;;;;;;;;;;;;;;;18.74;nan;99355.34;4901957;29;20005;-75
2022/06/27 01:08:25;;;;;;;;;;;;;;;18.76;nan;99378.16;4895129;29;20044;-74
2022/06/27 01:10:51;;;;;;;;;;;;;;;18.78;nan;99378.03;4911477;29;20037;-73
2022/06/27 01:13:16;;;;;;;;;;;;;;;18.77;nan;99369.22;4911794;29;19965;-72
2022/06/27 01:15:42;;;;;;;;;;;;;;;18.78;nan;99348.75;4912014;29;19969;-72
2022/06/27 01:18:08;;;;;;;;;;;;;;;18.76;nan;99348.91;4912738;29;19970;-74
2022/06/27 01:20:34;;;;;;;;;;;;;;;18.74;nan;99337.59;4911940;29;19968;-74
2022/06/27 01:22:59;;;;;;;;;;;;;;;18.71;nan;99331.72;4898293;29;19978;-73
2022/06/27 01:25:25;;;;;;;;;;;;;;;18.67;nan;99333.03;4912768;29;19970;-75
2022/06/27 01:27:50;;;;;;;;;;;;;;;18.67;nan;99331.19;4899296;29;19973;-72
2022/06/27 01:30:19;;;;;;;;;;;;;;;18.69;nan;99323.91;4926724;29;19972;-73
2022/06/27 01:32:44;;;;;;;;;;;;;;;18.69;nan;99339.03;4929986;29;19970;-75
2022/06/27 01:35:10;;;;;;;;;;;;;;;18.66;nan;99329.53;4901552;29;20858;-73
2022/06/27 01:37:35;;;;;;;;;;;;;;;18.61;nan;99325.69;4913513;29;20637;-73
2022/06/27 01:40:01;;;;;;;;;;;;;;;18.54;nan;99306.84;4902903;29;20012;-74
2022/06/27 01:42:29;;;;;;;;;;;;;;;18.53;nan;99302.50;4903552;29;20016;-74
2022/06/27 01:44:54;;;;;;;;;;;;;;;18.46;nan;99314.75;4899284;29;19993;-73
2022/06/27 01:47:19;;;;;;;;;;;;;;;18.39;nan;99308.38;4913131;29;19978;-73
2022/06/27 01:49:47;;;;;;;;;;;;;;;18.26;nan;99311.47;4899354;29;20006;-74
2022/06/27 01:52:14;;;;;;;;;;;;;;;18.20;nan;99314.72;4899490;29;19970;-73
2022/06/27 01:54:42;;;;;;;;;;;;;;;18.11;nan;99309.31;4899919;29;20002;-72
2022/06/27 01:57:10;;;;;;;;;;;;;;;18.02;nan;99307.59;4914407;29;20751;-72
2022/06/27 01:59:38;;;;;;;;;;;;;;;17.98;nan;99310.69;4948524;23;20000;-88
2022/06/27 02:02:06;;;;;;;;;;;;;;;17.97;nan;99303.72;4877453;29;20013;-89
2022/06/27 02:04:35;;;;;;;;;;;;;;;17.94;nan;99304.03;4884534;29;20532;-88
2022/06/27 02:07:01;;;;;;;;;;;;;;;17.95;nan;99306.53;4884363;29;20068;-90
2022/06/27 02:09:27;;;;;;;;;;;;;;;18.00;nan;99306.06;4917683;29;20092;-88
2022/06/27 02:11:57;;;;;;;;;;;;;;;18.05;nan;99309.13;4885668;29;20013;-87
2022/06/27 02:14:29;;;;;;;;;;;;;;;18.08;nan;99319.44;4893971;29;20599;-88
2022/06/27 02:16:57;;;;;;;;;;;;;;;18.09;nan;99306.00;4903370;29;19980;-88
2022/06/27 02:19:22;;;;;;;;;;;;;;;18.12;nan;99288.91;4881227;29;19976;-89
2022/06/27 02:21:50;;;;;;;;;;;;;;;18.14;nan;99286.91;4900655;29;19965;-90
2022/06/27 02:24:16;;;;;;;;;;;;;;;18.16;nan;99290.25;4875916;29;20350;-87
2022/06/27 02:26:42;;;;;;;;;;;;;;;18.15;nan;99288.59;4905163;29;19972;-89
2022/06/27 02:29:07;;;;;;;;;;;;;;;18.16;nan;99282.28;4902157;29;20021;-88
2022/06/27 02:31:33;;;;;;;;;;;;;;;18.23;nan;99285.19;4902203;29;20016;-89
2022/06/27 02:33:59;;;;;;;;;;;;;;;18.26;nan;99283.03;4902164;29;20166;-88
2022/06/27 02:36:26;;;;;;;;;;;;;;;18.27;nan;99287.34;4900056;29;20029;-89
2022/06/27 02:38:55;;;;;;;;;;;;;;;18.29;nan;99292.53;4884036;29;19973;-89
2022/06/27 02:41:28;;;;;;;;;;;;;;;18.32;nan;99290.38;4900584;29;20044;-89
2022/06/27 02:44:01;;;;;;;;;;;;;;;18.38;nan;99296.09;4886982;29;19985;-90
2022/06/27 02:46:27;;;;;;;;;;;;;;;18.43;nan;99301.78;4902696;29;20147;-89
2022/06/27 02:48:53;;;;;;;;;;;;;;;18.47;nan;99290.69;4886208;29;20004;-87
2022/06/27 02:51:31;;;;;;;;;;;;;;;;;;;;;
2022/06/27 02:54:02;;;;;;;;;;;;;;;18.46;nan;99282.84;4911949;29;19973;-89
2022/06/27 02:57:02;;;;;;;;;;;;;;;18.42;nan;99289.47;4875686;29;20326;-87
2022/06/27 02:59:38;;;;;;;;;;;;;;;18.30;nan;99289.69;4887537;29;19998;-88
2022/06/27 03:02:07;;;;;;;;;;;;;;;18.25;nan;99264.56;4876407;29;20320;-89
2022/06/27 03:05:01;;;;;;;;;;;;;;;18.22;nan;99247.09;4889422;29;20005;-89
2022/06/27 03:07:36;;;;;;;;;;;;;;;18.24;nan;99266.41;4894532;29;19970;-86
2022/06/27 03:10:02;;;;;;;;;;;;;;;18.28;nan;99282.88;4896812;29;19994;-89
2022/06/27 03:12:30;;;;;;;;;;;;;;;18.32;nan;99266.47;4911828;29;19986;-88
2022/06/27 03:14:55;;;;;;;;;;;;;;;18.35;nan;99250.19;4883586;29;19978;-89
2022/06/27 03:17:24;;;;;;;;;;;;;;;18.36;nan;99248.34;4898644;29;19965;-89
2022/06/27 03:20:18;;;;;;;;;;;;;;;18.39;nan;99258.72;4822659;29;19975;-88
2022/06/27 03:22:54;;;;;;;;;;;;;;;18.42;nan;99242.44;4806584;29;20321;-88
2022/06/27 03:25:29;;;;;;;;;;;;;;;18.42;nan;99221.16;4896734;29;20578;-89
2022/06/27 03:28:00;;;;;;;;;;;;;;;18.39;nan;99208.19;4913322;29;19970;-89
2022/06/27 03:30:28;;;;;;;;;;;;;;;18.28;nan;99209.28;4882763;29;19990;-90
2022/06/27 03:32:57;;;;;;;;;;;;;;;18.29;nan;99221.56;4882125;29;20307;-89
2022/06/27 03:35:25;;;;;;;;;;;;;;;18.29;nan;99216.25;4883035;29;20045;-89
2022/06/27 03:37:53;;;;;;;;;;;;;;;18.25;nan;99225.53;4897059;29;20113;-87
2022/06/27 03:40:22;;;;;;;;;;;;;;;18.24;nan;99236.34;4897911;29;20151;-89
2022/06/27 03:42:49;;;;;;;;;;;;;;;18.24;nan;99233.66;4896568;29;19970;-89
2022/06/27 03:45:15;;;;;;;;;;;;;;;18.24;nan;99223.88;4899032;29;19992;-88
2022/06/27 03:47:50;;;;;;;;;;;;;;;18.24;nan;99223.03;4899101;29;19973;-89
2022/06/27 03:50:31;;;;;;;;;;;;;;;18.29;nan;99226.91;4899875;29;20094;-88
2022/06/27 03:52:57;;;;;;;;;;;;;;;18.33;nan;99240.69;4906330;29;19977;-88
2022/06/27 03:55:25;;;;;;;;;;;;;;;18.32;nan;99244.34;4884651;29;19992;-88
2022/06/27 03:57:51;;;;;;;;;;;;;;;18.29;nan;99244.69;4898885;29;19972;-88
2022/06/27 04:00:31;;;;;;;;;;;;;;;;;;;;;
2022/06/27 04:03:05;;;;;;;;;;;;;;;18.28;nan;99246.50;4880840;29;20072;-89
2022/06/27 04:05:43;;;;;;;;;;;;;;;18.32;nan;99247.84;4880647;29;20048;-88
2022/06/27 04:08:08;;;;;;;;;;;;;;;18.31;nan;99262.16;4881938;29;20101;-88
2022/06/27 04:10:39;;;;;;;;;;;;;;;18.32;nan;99266.47;4896355;29;19974;-87
2022/06/27 04:13:13;;;;;;;;;;;;;;;18.35;nan;99266.16;4897456;29;20717;-87
2022/06/27 04:16:04;;;;;;;;;;;;;;;18.35;nan;99268.81;4890239;29;19981;-89
2022/06/27 04:18:54;;;;;;;;;;;;;;;18.38;nan;99277.47;4888433;29;20489;-87
2022/06/27 04:21:38;;;;;;;;;;;;;;;18.41;nan;99272.66;4901303;29;20470;-87
2022/06/27 04:24:12;;;;;;;;;;;;;;;18.42;nan;99271.69;4901872;29;19969;-89
2022/06/27 04:26:44;;;;;;;;;;;;;;;18.42;nan;99287.66;4892243;29;19970;-89
2022/06/27 04:29:11;;;;;;;;;;;;;;;18.43;nan;99291.13;4895738;29;19992;-90
2022/06/27 04:31:41;;;;;;;;;;;;;;;18.47;nan;99292.47;4900517;29;20291;-87
2022/06/27 04:34:19;;;;;;;;;;;;;;;18.52;nan;99299.03;4914027;28;20643;-85
2022/06/27 04:36:50;;;;;;;;;;;;;;;18.55;nan;99312.00;4919948;29;20054;-89
2022/06/27 04:39:17;;;;;;;;;;;;;;;18.57;nan;99322.47;4917985;29;19972;-86
2022/06/27 04:41:54;;;;;;;;;;;;;;;18.57;nan;99335.78;4885831;29;20008;-88
2022/06/27 04:44:21;;;;;;;;;;;;;;;18.53;nan;99340.59;4898954;29;19978;-89
2022/06/27 04:46:47;;;;;;;;;;;;;;;18.48;nan;99337.53;4897393;29;19966;-86
2022/06/27 04:49:26;;;;;;;;;;;;;;;18.46;nan;99325.41;4915951;29;20048;-88
2022/06/27 04:51:58;;;;;;;;;;;;;;;18.44;nan;99311.41;4904590;29;19966;-86
2022/06/27 04:54:26;;;;;;;;;;;;;;;18.44;nan;99324.69;4901881;29;19969;-87
2022/06/27 04:56:52;;;;;;;;;;;;;;;18.47;nan;99350.97;4919386;29;19989;-85
2022/06/27 04:59:20;;;;;;;;;;;;;;;18.51;nan;99363.84;4899012;29;20033;-86
2022/06/27 05:01:50;;;;;;;;;;;;;;;18.57;nan;99375.69;4906918;29;19992;-86
2022/06/27 05:04:19;;;;;;;;;;;;;;;18.57;nan;99378.34;4891935;29;19978;-86
2022/06/27 05:06:46;;;;;;;;;;;;;;;18.58;nan;99383.50;4877020;29;19970;-86
2022/06/27 05:09:12;;;;;;;;;;;;;;;18.60;nan;99377.19;4883022;29;19998;-88
2022/06/27 05:11:38;;;;;;;;;;;;;;;18.60;nan;99383.34;4884727;29;20001;-88
2022/06/27 05:14:04;;;;;;;;;;;;;;;18.58;nan;99375.53;4900917;29;20081;-87
2022/06/27 05:16:43;;;;;;;;;;;;;;;18.58;nan;99377.38;4898650;29;19962;-86
2022/06/27 05:19:11;;;;;;;;;;;;;;;18.59;nan;99376.38;4898038;29;19980;-87
2022/06/27 05:21:37;;;;;;;;;;;;;;;18.61;nan;99369.06;4881567;29;20017;-87
2022/06/27 05:24:05;;;;;;;;;;;;;;;18.64;nan;99368.75;4895076;29;19974;-87
2022/06/27 05:26:31;;;;;;;;;;;;;;;18.64;nan;99362.59;4881492;29;20296;-87
2022/06/27 05:28:56;;;;;;;;;;;;;;;18.69;nan;99363.81;4898581;29;20024;-85
2022/06/27 05:31:24;;;;;;;;;;;;;;;18.75;nan;99371.19;4899173;29;19973;-85
2022/06/27 05:33:49;;;;;;;;;;;;;;;18.87;nan;99392.22;4896628;29;19979;-89
2022/06/27 05:36:15;;;;;;;;;;;;;;;18.98;nan;99382.16;4897341;29;19978;-85
2022/06/27 05:38:40;;;;;;;;;;;;;;;19.11;nan;99392.38;4896985;29;20025;-87
2022/06/27 05:41:06;;;;;;;;;;;;;;;19.22;nan;99392.09;4896424;29;20085;-85
2022/06/27 05:43:32;;;;;;;;;;;;;;;19.29;nan;99394.16;4895948;29;19978;-86
2022/06/27 05:46:02;;;;;;;;;;;;;;;19.34;nan;99399.84;4896407;29;19976;-88
2022/06/27 05:48:28;;;;;;;;;;;;;;;19.32;nan;99421.28;4897885;29;19976;-86
2022/06/27 05:51:23;;;;;;;;;;;;;;;19.26;nan;99421.09;4895275;29;20362;-87
2022/06/27 05:53:50;;;;;;;;;;;;;;;19.21;nan;99441.03;4896792;29;19970;-86
2022/06/27 05:56:16;;;;;;;;;;;;;;;19.16;nan;99451.31;4897277;29;20065;-87
2022/06/27 05:58:42;;;;;;;;;;;;;;;19.13;nan;99454.28;4880691;29;20345;-85
2022/06/27 06:01:11;;;;;;;;;;;;;;;19.12;nan;99438.47;4884921;29;19998;-85
2022/06/27 06:03:40;;;;;;;;;;;;;;;19.09;nan;99433.44;4877195;29;19977;-84
2022/06/27 06:06:07;;;;;;;;;;;;;;;19.05;nan;99408.97;4896367;29;19970;-86
2022/06/27 06:08:33;;;;;;;;;;;;;;;18.99;nan;99361.69;4864553;29;19978;-86
2022/06/27 06:10:59;;;;;;;;;;;;;;;18.96;nan;99348.72;4888665;29;20112;-87
2022/06/27 06:13:25;;;;;;;;;;;;;;;18.98;nan;99354.69;4880435;29;19989;-87
2022/06/27 06:15:52;;;;;;;;;;;;;;;19.03;nan;99360.38;4898727;29;20550;-86
2022/06/27 06:18:19;;;;;;;;;;;;;;;19.04;nan;99383.34;4896092;29;19976;-88
2022/06/27 06:20:57;;;;;;;;;;;;;;;19.18;nan;99389.91;4875842;29;19989;-87
2022/06/27 06:23:46;;;;;;;;;;;;;;;19.46;nan;99394.03;4895115;29;19992;-87
2022/06/27 06:26:19;;;;;;;;;;;;;;;19.88;nan;99400.41;4896382;29;20070;-87
2022/06/27 06:31:58;;;;;;;;;;;;;;;20.12;nan;99442.28;4879855;29;20794;-86
2022/06/27 06:34:24;;;;;;;;;;;;;;;20.08;nan;99484.41;4881736;29;20186;-85
2022/06/27 06:36:50;;;;;;;;;;;;;;;19.96;nan;99498.22;4891894;29;20532;-86
2022/06/27 06:39:25;;;;;;;;;;;;;;;19.85;nan;99491.34;4887139;29;20007;-88
2022/06/27 06:42:01;;;;;;;;;;;;;;;19.74;nan;99483.63;4915774;29;19970;-88
2022/06/27 06:44:34;;;;;;;;;;;;;;;19.65;nan;99496.88;4899680;29;19973;-85
2022/06/27 06:47:19;;;;;;;;;;;;;;;19.63;nan;99487.38;4889104;29;20077;-87
2022/06/27 06:49:48;;;;;;;;;;;;;;;19.61;nan;99484.03;4898814;29;20014;-87
2022/06/27 06:52:13;;;;;;;;;;;;;;;19.61;nan;99484.88;4902013;29;19974;-88
2022/06/27 06:54:41;;;;;;;;;;;;;;;19.61;nan;99500.84;4901266;29;19978;-87
2022/06/27 06:57:09;;;;;;;;;;;;;;;19.62;nan;99481.19;4903054;29;20006;-87
2022/06/27 06:59:35;;;;;;;;;;;;;;;19.63;nan;99484.69;4886062;29;20004;-86
2022/06/27 07:02:01;;;;;;;;;;;;;;;19.66;nan;99484.44;4898804;29;19970;-86
2022/06/27 07:04:29;;;;;;;;;;;;;;;19.71;nan;99489.28;4898555;29;19993;-86
2022/06/27 07:06:55;;;;;;;;;;;;;;;19.70;nan;99482.28;4897337;29;19974;-87
2022/06/27 07:09:21;;;;;;;;;;;;;;;19.65;nan;99472.06;4898281;29;20277;-86
2022/06/27 07:11:47;;;;;;;;;;;;;;;19.62;nan;99472.38;4899152;29;20025;-86
2022/06/27 07:14:13;;;;;;;;;;;;;;;19.59;nan;99486.03;4899932;29;20075;-87
2022/06/27 07:16:42;;;;;;;;;;;;;;;19.58;nan;99492.34;4890554;29;19966;-87
2022/06/27 07:19:08;;;;;;;;;;;;;;;19.58;nan;99490.53;4899102;29;20430;-86
2022/06/27 07:21:34;;;;;;;;;;;;;;;19.55;nan;99496.16;4882224;29;19980;-86
2022/06/27 07:24:04;;;;;;;;;;;;;;;19.51;nan;99510.78;4902399;29;19980;-87
2022/06/27 07:26:32;;;;;;;;;;;;;;;19.46;nan;99526.41;4903088;29;19978;-87
2022/06/27 07:29:00;;;;;;;;;;;;;;;19.40;nan;99525.19;4895047;29;20068;-87
2022/06/27 07:31:27;;;;;;;;;;;;;;;19.38;nan;99526.34;4898975;29;20009;-86
2022/06/27 07:33:56;;;;;;;;;;;;;;;19.36;nan;99510.53;4869735;29;20049;-86
2022/06/27 07:36:25;;;;;;;;;;;;;;;19.35;nan;99524.00;4896625;29;20053;-86
2022/06/27 07:38:52;;;;;;;;;;;;;;;19.37;nan;99535.34;4901013;29;20022;-86
2022/06/27 07:41:20;;;;;;;;;;;;;;;19.42;nan;99535.72;4899773;29;19981;-86
2022/06/27 07:43:49;;;;;;;;;;;;;;;19.47;nan;99525.44;4900202;29;20480;-86
2022/06/27 07:46:18;;;;;;;;;;;;;;;19.52;nan;99524.94;4875982;29;19974;-85
2022/06/27 07:48:44;;;;;;;;;;;;;;;19.60;nan;99532.97;4899264;29;20000;-86
2022/06/27 07:51:13;;;;;;;;;;;;;;;19.65;nan;99534.16;4900399;29;20002;-86
2022/06/27 07:53:41;;;;;;;;;;;;;;;19.69;nan;99529.41;4899934;29;20420;-86
2022/06/27 07:56:07;;;;;;;;;;;;;;;19.73;nan;99527.25;4899778;29;20021;-86
2022/06/27 07:58:35;;;;;;;;;;;;;;;19.74;nan;99524.44;4900101;29;19974;-87
2022/06/27 08:01:14;;;;;;;;;;;;;;;19.73;nan;99528.09;4899357;29;20005;-88
2022/06/27 08:03:40;;;;;;;;;;;;;;;19.74;nan;99515.59;4898419;29;20762;-88
2022/06/27 08:06:15;;;;;;;;;;;;;;;19.75;nan;99514.63;4899046;29;20005;-86
2022/06/27 08:08:42;;;;;;;;;;;;;;;19.76;nan;99508.28;4899246;29;20764;-86
2022/06/27 08:11:09;;;;;;;;;;;;;;;19.82;nan;99488.97;4899129;29;19980;-87
2022/06/27 08:13:35;;;;;;;;;;;;;;;19.98;nan;99481.09;4896731;29;20082;-85
2022/06/27 08:16:02;;;;;;;;;;;;;;;20.34;nan;99478.19;4897109;29;19970;-85
2022/06/27 08:18:30;;;;;;;;;;;;;;;20.65;nan;99505.09;4900212;29;20526;-85
2022/06/27 08:20:56;;;;;;;;;;;;;;;20.86;nan;99491.25;4900159;29;20073;-86
2022/06/27 08:23:23;;;;;;;;;;;;;;;21.36;nan;99484.88;4900383;29;20513;-87
2022/06/27 08:25:51;;;;;;;;;;;;;;;21.92;nan;99479.53;4898845;29;19985;-85
2022/06/27 08:28:20;;;;;;;;;;;;;;;22.25;nan;99474.91;4891829;29;19989;-87
2022/06/27 08:30:45;;;;;;;;;;;;;;;22.42;nan;99474.81;4902161;29;20203;-87
2022/06/27 08:33:14;;;;;;;;;;;;;;;22.60;nan;99474.50;4901361;29;20598;-86
2022/06/27 08:35:42;;;;;;;;;;;;;;;22.64;nan;99482.00;4901925;29;19986;-87
2022/06/27 08:38:10;;;;;;;;;;;;;;;22.88;nan;99474.81;4903491;29;19973;-89
2022/06/27 08:40:36;;;;;;;;;;;;;;;23.23;nan;99476.00;4904726;29;19986;-87
2022/06/27 08:43:01;;;;;;;;;;;;;;;23.19;nan;99485.41;4906216;29;20021;-88
2022/06/27 08:45:28;;;;;;;;;;;;;;;23.32;nan;99495.53;4910160;29;19993;-88
2022/06/27 08:47:56;;;;;;;;;;;;;;;23.43;nan;99492.38;4925736;28;19961;-88
2022/06/27 08:50:22;;;;;;;;;;;;;;;23.18;nan;99498.00;4927948;28;19986;-87
2022/06/27 08:52:48;;;;;;;;;;;;;;;23.02;nan;99500.00;4740081;28;5001736;-86
2022/06/27 08:55:14;;;;;;;;;;;;;;;23.23;nan;99504.66;4898861;29;20024;-88
2022/06/27 08:57:42;;;;;;;;;;;;;;;23.47;nan;99515.16;4862986;29;20037;-85
2022/06/27 09:00:12;;;;;;;;;;;;;;;23.52;nan;99530.66;4896179;29;19970;-85
2022/06/27 09:02:42;;;;;;;;;;;;;;;23.51;nan;99527.16;4920164;29;19976;-87
2022/06/27 09:05:28;;;;;;;;;;;;;;;23.59;nan;99535.13;4904989;29;19984;-86
2022/06/27 09:07:55;;;;;;;;;;;;;;;23.50;nan;99540.75;4916397;29;19973;-85
2022/06/27 09:10:26;;;;;;;;;;;;;;;23.34;nan;99541.75;4913586;29;19974;-85
2022/06/27 09:12:56;;;;;;;;;;;;;;;23.27;nan;99552.34;4913206;29;19990;-86
2022/06/27 09:15:22;;;;;;;;;;;;;;;23.15;nan;99557.31;4888376;29;20469;-86
2022/06/27 09:18:02;;;;;;;;;;;;;;;23.03;nan;99558.72;4903013;29;19970;-85
2022/06/27 09:20:44;;;;;;;;;;;;;;;22.90;nan;99561.13;4911972;29;19993;-86
2022/06/27 09:23:25;;;;;;;;;;;;;;;22.69;nan;99567.16;4907372;29;20077;-85
2022/06/27 09:25:56;;;;;;;;;;;;;;;22.50;nan;99571.13;4913701;29;20011;-84
2022/06/27 09:28:22;;;;;;;;;;;;;;;22.36;nan;99574.50;4909297;29;20357;-85
2022/06/27 09:30:47;;;;;;;;;;;;;;;22.30;nan;99570.69;4913300;29;20052;-86
2022/06/27 09:33:13;;;;;;;;;;;;;;;22.31;nan;99578.56;4908019;29;20405;-85
2022/06/27 09:35:39;;;;;;;;;;;;;;;22.28;nan;99581.59;4907911;29;20029;-86
2022/06/27 09:38:07;;;;;;;;;;;;;;;22.20;nan;99580.78;4908539;29;19973;-85
2022/06/27 09:40:33;;;;;;;;;;;;;;;22.14;nan;99589.47;4907898;29;20885;-87
2022/06/27 09:42:59;;;;;;;;;;;;;;;22.12;nan;99595.00;4895930;29;19978;-84
2022/06/27 09:45:26;;;;;;;;;;;;;;;22.07;nan;99592.00;4869246;29;19986;-84
2022/06/27 09:47:57;;;;;;;;;;;;;;;22.03;nan;99596.84;4875322;29;20035;-86
2022/06/27 09:50:23;;;;;;;;;;;;;;;22.09;nan;99598.03;4871705;29;20414;-86
2022/06/27 09:52:50;;;;;;;;;;;;;;;22.14;nan;99598.31;4884286;29;19974;-86
2022/06/27 09:55:18;;;;;;;;;;;;;;;22.15;nan;99607.19;4871523;29;20408;-86
2022/06/27 09:57:44;;;;;;;;;;;;;;;22.25;nan;99610.50;4879995;29;19975;-85
2022/06/27 10:00:11;;;;;;;;;;;;;;;22.36;nan;99611.97;4862563;29;19999;-86
2022/06/27 10:02:39;;;;;;;;;;;;;;;22.42;nan;99619.34;4875125;29;20057;-86
2022/06/27 10:05:05;;;;;;;;;;;;;;;22.44;nan;99620.84;4873298;29;19974;-85
2022/06/27 10:07:31;;;;;;;;;;;;;;;22.37;nan;99625.19;4860181;29;20050;-86
2022/06/27 10:09:56;;;;;;;;;;;;;;;22.30;nan;99622.41;4873415;29;19978;-86
2022/06/27 10:12:26;;;;;;;;;;;;;;;22.23;nan;99632.09;4870941;29;19990;-86
2022/06/27 10:15:10;;;;;;;;;;;;;;;22.25;nan;99638.13;4875818;29;20533;-86
2022/06/27 10:17:37;;;;;;;;;;;;;;;22.52;nan;99638.66;4876120;29;20328;-87
2022/06/27 10:20:07;;;;;;;;;;;;;;;22.89;nan;99631.81;4877065;29;19994;-86
2022/06/27 10:22:35;;;;;;;;;;;;;;;23.20;nan;99629.13;4877418;29;20162;-87
2022/06/27 10:25:19;;;;;;;;;;;;;;;23.56;nan;99629.31;4876138;29;20753;-85
2022/06/27 10:27:44;;;;;;;;;;;;;;;24.00;nan;99628.59;4877248;29;19966;-87
2022/06/27 10:30:31;;;;;;;;;;;;;;;24.29;nan;99635.81;4877672;29;19958;-86
2022/06/27 10:32:56;;;;;;;;;;;;;;;24.53;nan;99636.56;4880867;29;19962;-87
2022/06/27 10:35:24;;;;;;;;;;;;;;;24.51;nan;99634.06;4878352;29;19971;-85
2022/06/27 10:37:49;;;;;;;;;;;;;;;24.47;nan;99635.47;4881835;29;20274;-86
2022/06/27 10:40:20;;;;;;;;;;;;;;;24.35;nan;99626.19;4878685;29;20678;-86
2022/06/27 10:42:50;;;;;;;;;;;;;;;24.17;nan;99623.03;4880404;29;20442;-87
2022/06/27 10:45:21;;;;;;;;;;;;;;;23.93;nan;99618.81;4883433;29;19997;-86
2022/06/27 10:47:47;;;;;;;;;;;;;;;23.78;nan;99618.75;4880549;29;19982;-86
2022/06/27 10:50:14;;;;;;;;;;;;;;;23.88;nan;99613.97;4884394;29;20609;-86
2022/06/27 10:52:39;;;;;;;;;;;;;;;23.97;nan;99623.59;4890232;29;19985;-86
2022/06/27 10:55:21;;;;;;;;;;;;;;;24.14;nan;99623.41;4901365;29;19989;-87
2022/06/27 10:57:47;;;;;;;;;;;;;;;24.16;nan;99621.38;4900305;29;20140;-84
2022/06/27 11:00:33;;;;;;;;;;;;;;;24.10;nan;99617.59;4897093;29;19994;-86
2022/06/27 11:03:00;;;;;;;;;;;;;;;23.92;nan;99615.25;4886705;29;20532;-85
2022/06/27 11:05:26;;;;;;;;;;;;;;;23.88;nan;99613.16;4879847;29;20342;-88
2022/06/27 11:07:53;;;;;;;;;;;;;;;23.89;nan;99617.47;4884666;29;20027;-85
2022/06/27 11:10:20;;;;;;;;;;;;;;;23.88;nan;99616.66;4886639;29;19966;-85
2022/06/27 11:12:46;;;;;;;;;;;;;;;23.82;nan;99625.44;4886170;29;19995;-88
2022/06/27 11:15:11;;;;;;;;;;;;;;;23.68;nan;99623.53;4891026;29;19975;-85
2022/06/27 11:17:38;;;;;;;;;;;;;;;23.40;nan;99621.44;4886103;29;20390;-85
2022/06/27 11:20:15;;;;;;;;;;;;;;;23.21;nan;99622.75;4890986;29;19994;-87
2022/06/27 11:22:41;;;;;;;;;;;;;;;23.04;nan;99619.34;4885244;29;19974;-85
2022/06/27 11:25:07;;;;;;;;;;;;;;;22.92;nan;99629.59;4867174;29;20199;-87
2022/06/27 11:27:46;;;;;;;;;;;;;;;22.80;nan;99627.50;4876885;29;20040;-86
2022/06/27 11:33:08;;;;;;;;;;;;;;;22.54;nan;99634.81;4870636;29;20384;-87
2022/06/27 11:35:33;;;;;;;;;;;;;;;22.50;nan;99646.06;4875967;29;20054;-86
2022/06/27 11:37:59;;;;;;;;;;;;;;;22.48;nan;99632.00;4876449;29;19974;-86
2022/06/27 11:40:24;;;;;;;;;;;;;;;22.52;nan;99630.63;4866829;29;20037;-87
2022/06/27 11:42:52;;;;;;;;;;;;;;;22.53;nan;99632.31;4867005;29;19970;-84
2022/06/27 11:45:17;;;;;;;;;;;;;;;22.59;nan;99620.09;4870121;29;20387;-85
2022/06/27 11:47:44;;;;;;;;;;;;;;;22.67;nan;99623.53;4873991;29;19974;-85
2022/06/27 11:50:11;;;;;;;;;;;;;;;22.71;nan;99626.69;4869724;29;19982;-86
2022/06/27 11:52:46;;;;;;;;;;;;;;;22.81;nan;99626.50;4874174;29;19967;-86
2022/06/27 11:55:13;;;;;;;;;;;;;;;22.90;nan;99628.09;4874866;29;19973;-86
2022/06/27 11:57:43;;;;;;;;;;;;;;;22.96;nan;99624.75;4869849;29;20321;-86
2022/06/27 12:00:14;;;;;;;;;;;;;;;23.03;nan;99616.84;4872048;29;20022;-86
2022/06/27 12:02:41;;;;;;;;;;;;;;;23.05;nan;99612.97;4872974;29;20438;-86
2022/06/27 12:05:10;;;;;;;;;;;;;;;23.10;nan;99610.59;4873457;29;20242;-86
2022/06/27 12:07:54;;;;;;;;;;;;;;;23.17;nan;99619.59;4868231;29;19967;-87
2022/06/27 12:10:35;;;;;;;;;;;;;;;23.26;nan;99606.13;4860051;29;20552;-86
2022/06/27 12:13:00;;;;;;;;;;;;;;;23.33;nan;99607.06;4860759;29;20037;-87
2022/06/27 12:15:26;;;;;;;;;;;;;;;23.44;nan;99603.13;4865955;29;20187;-86
2022/06/27 12:17:58;;;;;;;;;;;;;;;23.51;nan;99604.06;4866904;29;19967;-86
2022/06/27 12:20:24;;;;;;;;;;;;;;;23.48;nan;99613.31;4865411;29;19994;-86
2022/06/27 12:22:50;;;;;;;;;;;;;;;23.54;nan;99601.84;4869524;29;19999;-86
2022/06/27 12:25:16;;;;;;;;;;;;;;;23.58;nan;99602.34;4868402;29;20456;-86
2022/06/27 12:27:42;;;;;;;;;;;;;;;23.70;nan;99602.72;4864550;29;20671;-86
2022/06/27 12:30:07;;;;;;;;;;;;;;;23.82;nan;99604.00;4858433;29;19975;-85
2022/06/27 12:32:33;;;;;;;;;;;;;;;23.79;nan;99601.66;4851161;29;19978;-86
2022/06/27 12:34:58;;;;;;;;;;;;;;;23.71;nan;99597.22;4864143;29;19976;-85
2022/06/27 12:37:26;;;;;;;;;;;;;;;23.84;nan;99605.47;4871053;29;19962;-86
2022/06/27 12:39:51;;;;;;;;;;;;;;;23.98;nan;99603.81;4863764;29;19986;-86
2022/06/27 12:42:17;;;;;;;;;;;;;;;24.06;nan;99609.09;4854466;29;21062;-87
2022/06/27 12:44:42;;;;;;;;;;;;;;;24.17;nan;99613.16;4868197;29;19967;-85
2022/06/27 12:47:10;;;;;;;;;;;;;;;24.16;nan;99605.28;4868960;29;20276;-86
2022/06/27 12:49:36;;;;;;;;;;;;;;;24.13;nan;99606.47;4870206;29;20009;-86
2022/06/27 12:52:01;;;;;;;;;;;;;;;24.15;nan;99603.63;4871393;29;20014;-84
2022/06/27 12:54:27;;;;;;;;;;;;;;;24.22;nan;99608.06;4868372;29;19970;-86
2022/06/27 12:56:52;;;;;;;;;;;;;;;24.24;nan;99608.69;4865382;29;19967;-87
2022/06/27 12:59:18;;;;;;;;;;;;;;;24.25;nan;99598.81;4874824;29;20697;-85
2022/06/27 13:01:43;;;;;;;;;;;;;;;24.16;nan;99597.22;4866962;29;19981;-86
2022/06/27 13:04:08;;;;;;;;;;;;;;;24.17;nan;99593.50;4867215;29;20631;-86
2022/06/27 13:06:34;;;;;;;;;;;;;;;24.19;nan;99595.00;4865413;29;20001;-87
2022/06/27 13:09:00;;;;;;;;;;;;;;;24.24;nan;99586.41;4859129;29;19978;-87
2022/06/27 13:11:25;;;;;;;;;;;;;;;24.23;nan;99584.75;4873305;29;20006;-87
2022/06/27 13:13:51;;;;;;;;;;;;;;;24.16;nan;99590.00;4867064;29;20095;-85
2022/06/27 13:16:16;;;;;;;;;;;;;;;24.18;nan;99592.53;4865419;29;19978;-86
2022/06/27 13:18:41;;;;;;;;;;;;;;;24.19;nan;99597.69;4853464;29;19970;-86
2022/06/27 13:21:07;;;;;;;;;;;;;;;24.23;nan;99600.84;4872159;29;19971;-87
2022/06/27 13:23:32;;;;;;;;;;;;;;;24.16;nan;99606.09;4864320;29;19966;-87